Time;durP1;ratioP1;P1;durP2;ratioP2;P2;SDS_P1;SDS_P2;PMS_P1;PMS_P2;Temp;Humidity;BMP_temperature;BMP_pressure;BME280_temperature;BME280_humidity;BME280_pressure;Samples;Min_cycle;Max_cycle;Signal;HPM_P1;HPM_P2
2021/05/04 00:01:31;;;;;;;5.72;1.38;;;;;;;;;;5012180;28;20037;-55
2021/05/04 00:03:58;;;;;;;5.78;1.75;;;;;;;;;;5029735;28;20124;-56
2021/05/04 00:06:27;;;;;;;4.80;1.38;;;;;;;;;;5023175;28;20767;-56
2021/05/04 00:08:53;;;;;;;4.68;1.13;;;;;;;;;;5031924;28;20131;-52
2021/05/04 00:11:19;;;;;;;5.95;1.40;;;;;;;;;;5028967;28;20427;-53
2021/05/04 00:13:50;;;;;;;4.40;1.30;;;;;;;;;;5024572;28;20253;-54
2021/05/04 00:16:16;;;;;;;8.55;1.65;;;;;;;;;;5041373;28;20052;-57
2021/05/04 00:18:45;;;;;;;7.65;1.48;;;;;;;;;;5029178;28;20045;-54
2021/05/04 00:21:11;;;;;;;5.32;1.40;;;;;;;;;;5028766;28;20504;-55
2021/05/04 00:23:37;;;;;;;8.02;1.30;;;;;;;;;;5027780;28;20048;-57
2021/05/04 00:26:03;;;;;;;5.05;1.40;;;;;;;;;;5044295;28;20538;-56
2021/05/04 00:28:35;;;;;;;4.38;1.40;;;;;;;;;;5026330;28;20540;-58
2021/05/04 00:31:01;;;;;;;7.05;1.23;;;;;;;;;;5035478;28;20052;-54
2021/05/04 00:33:27;;;;;;;7.40;1.60;;;;;;;;;;5030098;28;20049;-56
2021/05/04 00:35:53;;;;;;;7.22;1.50;;;;;;;;;;5029710;28;20049;-54
2021/05/04 00:38:19;;;;;;;7.57;1.80;;;;;;;;;;5025348;28;20700;-57
2021/05/04 00:40:46;;;;;;;5.53;1.65;;;;;;;;;;5010581;28;20060;-55
2021/05/04 00:43:14;;;;;;;7.63;1.60;;;;;;;;;;5011976;28;20064;-54
2021/05/04 00:45:40;;;;;;;8.15;1.50;;;;;;;;;;5027358;28;20119;-56
2021/05/04 00:48:06;;;;;;;6.13;1.40;;;;;;;;;;5028436;28;20700;-56
2021/05/04 00:50:32;;;;;;;4.65;1.15;;;;;;;;;;5027949;28;20045;-55
2021/05/04 00:52:58;;;;;;;5.93;1.38;;;;;;;;;;5029939;28;20861;-54
2021/05/04 00:55:25;;;;;;;3.60;1.40;;;;;;;;;;5029814;28;20044;-57
2021/05/04 00:57:53;;;;;;;3.88;1.30;;;;;;;;;;5022938;28;20336;-56
2021/05/04 01:00:19;;;;;;;6.35;1.67;;;;;;;;;;5020006;28;20167;-56
2021/05/04 01:02:46;;;;;;;8.88;1.60;;;;;;;;;;5020653;28;20047;-56
2021/05/04 01:05:12;;;;;;;9.88;1.90;;;;;;;;;;5012583;28;20385;-54
2021/05/04 01:07:38;;;;;;;10.90;2.08;;;;;;;;;;5028625;28;20065;-56
2021/05/04 01:10:05;;;;;;;7.90;1.70;;;;;;;;;;5028375;28;20125;-57
2021/05/04 01:12:31;;;;;;;6.95;1.65;;;;;;;;;;5027648;28;20056;-60
2021/05/04 01:14:58;;;;;;;5.68;2.03;;;;;;;;;;5022201;28;20053;-56
2021/05/04 01:17:26;;;;;;;5.72;1.80;;;;;;;;;;5030799;28;20033;-56
2021/05/04 01:19:52;;;;;;;6.40;1.40;;;;;;;;;;5029334;28;20091;-55
2021/05/04 01:22:18;;;;;;;8.95;1.25;;;;;;;;;;5035970;28;20142;-56
2021/05/04 01:24:44;;;;;;;6.38;1.70;;;;;;;;;;5032584;28;20119;-53
2021/05/04 01:27:13;;;;;;;5.75;1.33;;;;;;;;;;5048558;28;20040;-56
2021/05/04 01:29:38;;;;;;;6.20;1.60;;;;;;;;;;5023933;28;20430;-56
2021/05/04 01:32:04;;;;;;;3.85;1.77;;;;;;;;;;5045083;28;20046;-57
2021/05/04 01:34:31;;;;;;;4.47;1.77;;;;;;;;;;5021052;28;20337;-57
2021/05/04 01:36:57;;;;;;;6.25;1.35;;;;;;;;;;5022472;28;20049;-55
2021/05/04 01:39:28;;;;;;;4.85;1.40;;;;;;;;;;5016712;28;20708;-55
2021/05/04 01:41:53;;;;;;;15.57;2.10;;;;;;;;;;5031562;28;20435;-56
2021/05/04 01:44:19;;;;;;;5.25;1.60;;;;;;;;;;5029970;28;20057;-58
2021/05/04 01:46:45;;;;;;;8.45;2.80;;;;;;;;;;5031753;28;20032;-58
2021/05/04 01:49:11;;;;;;;10.65;2.15;;;;;;;;;;5035205;28;21077;-56
2021/05/04 01:51:38;;;;;;;5.00;1.58;;;;;;;;;;5031802;28;20121;-57
2021/05/04 01:54:05;;;;;;;4.43;1.73;;;;;;;;;;5032455;28;20140;-58
2021/05/04 01:56:33;;;;;;;11.02;1.50;;;;;;;;;;5030246;28;20442;-56
2021/05/04 01:59:03;;;;;;;8.85;2.05;;;;;;;;;;5027811;28;20756;-56
2021/05/04 02:01:29;;;;;;;4.85;1.48;;;;;;;;;;5021993;28;20470;-59
2021/05/04 02:03:56;;;;;;;5.90;1.40;;;;;;;;;;5044222;28;20049;-54
2021/05/04 02:06:22;;;;;;;4.38;1.55;;;;;;;;;;5029395;28;20041;-57
2021/05/04 02:08:48;;;;;;;6.35;1.73;;;;;;;;;;5031569;28;20040;-55
2021/05/04 02:11:14;;;;;;;9.15;3.88;;;;;;;;;;5033325;28;20105;-56
2021/05/04 02:13:41;;;;;;;4.30;1.48;;;;;;;;;;5022466;28;20110;-56
2021/05/04 02:16:06;;;;;;;4.38;1.40;;;;;;;;;;5014596;28;20545;-58
2021/05/04 02:18:32;;;;;;;5.75;1.75;;;;;;;;;;5031404;28;20041;-54
2021/05/04 02:20:58;;;;;;;6.07;2.03;;;;;;;;;;5026809;28;20499;-56
2021/05/04 02:23:24;;;;;;;6.25;1.50;;;;;;;;;;5029110;28;20091;-57
2021/05/04 02:25:51;;;;;;;4.10;1.30;;;;;;;;;;5029080;28;20048;-54
2021/05/04 02:28:17;;;;;;;5.55;1.52;;;;;;;;;;5040640;28;20128;-57
2021/05/04 02:30:43;;;;;;;8.15;1.73;;;;;;;;;;5009602;28;20036;-56
2021/05/04 02:33:09;;;;;;;4.53;1.55;;;;;;;;;;5026853;28;20057;-57
2021/05/04 02:35:35;;;;;;;5.22;1.58;;;;;;;;;;5023027;28;20040;-52
2021/05/04 02:38:07;;;;;;;6.30;1.65;;;;;;;;;;5035021;28;20064;-58
2021/05/04 02:40:33;;;;;;;7.38;1.80;;;;;;;;;;5026950;28;20047;-55
2021/05/04 02:42:59;;;;;;;4.78;1.42;;;;;;;;;;5018376;28;20054;-56
2021/05/04 02:45:25;;;;;;;5.30;1.92;;;;;;;;;;4974792;28;20042;-58
2021/05/04 02:47:51;;;;;;;6.65;2.00;;;;;;;;;;5011369;28;20051;-57
2021/05/04 02:50:17;;;;;;;6.55;1.80;;;;;;;;;;5011007;28;20052;-56
2021/05/04 02:52:43;;;;;;;4.25;1.77;;;;;;;;;;4981705;28;20096;-58
2021/05/04 02:55:14;;;;;;;6.43;1.80;;;;;;;;;;4992050;28;20049;-55
2021/05/04 02:57:40;;;;;;;4.32;1.73;;;;;;;;;;5001616;28;20403;-56
2021/05/04 03:00:07;;;;;;;5.47;2.00;;;;;;;;;;5019616;28;20404;-55
2021/05/04 03:02:33;;;;;;;9.13;2.15;;;;;;;;;;5002706;28;20503;-57
2021/05/04 03:04:59;;;;;;;4.72;2.20;;;;;;;;;;5008167;28;20033;-53
2021/05/04 03:07:25;;;;;;;5.15;1.70;;;;;;;;;;5008721;28;20053;-55
2021/05/04 03:09:51;;;;;;;5.53;1.55;;;;;;;;;;4999799;28;20044;-53
2021/05/04 03:12:17;;;;;;;8.07;1.80;;;;;;;;;;5006658;28;20041;-54
2021/05/04 03:14:46;;;;;;;11.88;1.95;;;;;;;;;;5009391;28;20049;-56
2021/05/04 03:17:11;;;;;;;20.17;5.50;;;;;;;;;;4999708;28;20037;-54
2021/05/04 03:19:37;;;;;;;16.92;4.45;;;;;;;;;;5007719;28;20942;-54
2021/05/04 03:22:05;;;;;;;9.73;3.17;;;;;;;;;;4990494;28;20037;-55
2021/05/04 03:24:31;;;;;;;12.68;2.53;;;;;;;;;;5008090;28;20041;-54
2021/05/04 03:26:57;;;;;;;9.07;2.25;;;;;;;;;;5007071;28;20052;-56
2021/05/04 03:29:23;;;;;;;8.98;2.17;;;;;;;;;;5000029;28;20042;-57
2021/05/04 03:31:49;;;;;;;7.97;2.25;;;;;;;;;;5009480;28;20037;-56
2021/05/04 03:34:15;;;;;;;4.43;2.17;;;;;;;;;;5007234;28;20051;-58
2021/05/04 03:36:41;;;;;;;8.73;2.30;;;;;;;;;;4997457;28;20038;-53
2021/05/04 03:39:07;;;;;;;6.82;2.28;;;;;;;;;;5007162;28;20041;-57
2021/05/04 03:41:33;;;;;;;6.65;2.40;;;;;;;;;;4990891;28;20070;-54
2021/05/04 03:44:02;;;;;;;8.02;2.08;;;;;;;;;;5023619;28;20663;-56
2021/05/04 03:46:28;;;;;;;10.00;2.28;;;;;;;;;;5006814;28;20036;-55
2021/05/04 03:48:54;;;;;;;8.18;2.28;;;;;;;;;;5028231;28;20056;-56
2021/05/04 03:51:20;;;;;;;8.68;1.98;;;;;;;;;;5034302;28;20425;-56
2021/05/04 03:53:46;;;;;;;7.25;2.30;;;;;;;;;;5022770;28;20080;-56
2021/05/04 03:56:12;;;;;;;8.00;4.10;;;;;;;;;;5015816;28;20059;-52
2021/05/04 03:58:40;;;;;;;7.85;2.80;;;;;;;;;;5029345;28;20210;-56
2021/05/04 04:01:06;;;;;;;5.30;2.30;;;;;;;;;;5032078;28;20037;-54
2021/05/04 04:03:32;;;;;;;4.90;2.38;;;;;;;;;;5026612;28;20036;-54
2021/05/04 04:05:58;;;;;;;7.38;2.38;;;;;;;;;;5028254;28;20550;-53
2021/05/04 04:08:24;;;;;;;5.20;2.30;;;;;;;;;;5010049;28;20178;-56
2021/05/04 04:10:50;;;;;;;5.82;2.20;;;;;;;;;;5036623;28;20047;-53
2021/05/04 04:13:16;;;;;;;5.68;2.47;;;;;;;;;;5031360;28;20092;-53
2021/05/04 04:15:45;;;;;;;6.15;2.40;;;;;;;;;;5028749;28;20138;-55
2021/05/04 04:18:14;;;;;;;9.57;2.70;;;;;;;;;;5034506;28;20059;-56
2021/05/04 04:20:40;;;;;;;6.43;2.88;;;;;;;;;;5005300;28;20046;-55
2021/05/04 04:23:06;;;;;;;5.57;2.47;;;;;;;;;;5041544;28;20045;-57
2021/05/04 04:25:32;;;;;;;6.60;2.78;;;;;;;;;;5028742;28;20029;-54
2021/05/04 04:27:58;;;;;;;7.97;2.90;;;;;;;;;;5027001;28;20149;-57
2021/05/04 04:30:24;;;;;;;6.47;3.00;;;;;;;;;;4967345;28;20027;-57
2021/05/04 04:32:51;;;;;;;9.75;2.88;;;;;;;;;;4967440;28;20191;-59
2021/05/04 04:35:17;;;;;;;6.85;2.75;;;;;;;;;;4968239;28;20049;-56
2021/05/04 04:37:43;;;;;;;7.57;2.70;;;;;;;;;;4968692;28;20169;-58
2021/05/04 04:40:09;;;;;;;6.05;2.55;;;;;;;;;;4953262;28;20129;-54
2021/05/04 04:42:35;;;;;;;7.85;2.83;;;;;;;;;;4966558;28;20125;-52
2021/05/04 04:45:02;;;;;;;7.57;2.20;;;;;;;;;;4969924;28;20157;-55
2021/05/04 04:47:27;;;;;;;7.97;2.60;;;;;;;;;;4967227;28;20116;-55
2021/05/04 04:49:53;;;;;;;9.43;2.70;;;;;;;;;;4969709;28;20046;-55
2021/05/04 04:52:19;;;;;;;6.10;1.90;;;;;;;;;;4967013;28;21225;-57
2021/05/04 04:54:45;;;;;;;5.60;2.28;;;;;;;;;;4967274;28;20047;-55
2021/05/04 04:57:11;;;;;;;5.32;2.05;;;;;;;;;;4972116;28;20117;-53
2021/05/04 04:59:37;;;;;;;6.65;2.50;;;;;;;;;;4971015;28;20092;-54
2021/05/04 05:02:03;;;;;;;10.35;2.50;;;;;;;;;;4971842;28;20105;-55
2021/05/04 05:04:28;;;;;;;6.05;2.40;;;;;;;;;;4969598;28;20093;-54
2021/05/04 05:06:54;;;;;;;7.53;2.60;;;;;;;;;;4975943;28;20050;-53
2021/05/04 05:09:20;;;;;;;5.65;2.45;;;;;;;;;;5032273;28;20034;-55
2021/05/04 05:11:46;;;;;;;7.15;2.45;;;;;;;;;;5034177;28;20046;-56
2021/05/04 05:14:12;;;;;;;5.50;2.20;;;;;;;;;;5031847;28;20139;-53
2021/05/04 05:16:38;;;;;;;7.40;2.20;;;;;;;;;;5031589;28;20999;-52
2021/05/04 05:19:04;;;;;;;8.23;2.30;;;;;;;;;;5033135;28;20060;-54
2021/05/04 05:21:31;;;;;;;8.35;2.20;;;;;;;;;;5031573;28;20037;-55
2021/05/04 05:23:58;;;;;;;7.75;2.28;;;;;;;;;;5030827;28;20037;-55
2021/05/04 05:26:24;;;;;;;4.30;2.20;;;;;;;;;;5032641;28;20048;-56
2021/05/04 05:28:52;;;;;;;5.82;2.47;;;;;;;;;;5031452;28;20569;-55
2021/05/04 05:31:18;;;;;;;5.55;2.15;;;;;;;;;;5032988;28;20036;-55
2021/05/04 05:33:44;;;;;;;5.60;2.10;;;;;;;;;;5032359;28;20462;-55
2021/05/04 05:36:09;;;;;;;4.55;2.47;;;;;;;;;;5032221;28;20029;-54
2021/05/04 05:38:36;;;;;;;6.03;2.42;;;;;;;;;;5015846;28;20037;-56
2021/05/04 05:41:01;;;;;;;6.80;2.25;;;;;;;;;;5030833;28;20033;-57
2021/05/04 05:43:27;;;;;;;8.10;2.55;;;;;;;;;;5031889;28;20063;-56
2021/05/04 05:45:53;;;;;;;5.00;2.38;;;;;;;;;;5031860;28;20041;-57
2021/05/04 05:48:19;;;;;;;6.70;2.17;;;;;;;;;;5031209;28;20610;-56
2021/05/04 05:50:45;;;;;;;6.72;1.73;;;;;;;;;;5031371;28;20051;-58
2021/05/04 05:53:11;;;;;;;4.45;1.20;;;;;;;;;;5030540;28;20056;-57
2021/05/04 05:55:36;;;;;;;4.55;1.70;;;;;;;;;;5030964;28;24671;-57
2021/05/04 05:58:02;;;;;;;4.95;1.25;;;;;;;;;;5031431;28;20048;-58
2021/05/04 06:00:28;;;;;;;5.00;1.27;;;;;;;;;;5029779;28;20045;-57
2021/05/04 06:02:54;;;;;;;3.65;1.10;;;;;;;;;;5030463;28;20143;-56
2021/05/04 06:05:20;;;;;;;4.28;1.20;;;;;;;;;;5030706;28;20507;-57
2021/05/04 06:07:46;;;;;;;5.13;1.50;;;;;;;;;;5032862;28;20526;-58
2021/05/04 06:10:12;;;;;;;6.95;2.33;;;;;;;;;;5031250;28;20047;-58
2021/05/04 06:12:38;;;;;;;4.38;1.40;;;;;;;;;;5030704;28;20036;-56
2021/05/04 06:15:04;;;;;;;3.97;1.20;;;;;;;;;;5032487;28;20193;-56
2021/05/04 06:17:30;;;;;;;7.57;1.20;;;;;;;;;;5030389;28;20379;-57
2021/05/04 06:19:56;;;;;;;3.83;1.30;;;;;;;;;;5032725;28;20041;-56
2021/05/04 06:22:22;;;;;;;3.95;1.30;;;;;;;;;;5032030;28;20041;-56
2021/05/04 06:24:48;;;;;;;3.38;1.30;;;;;;;;;;5032534;28;20644;-54
2021/05/04 06:27:13;;;;;;;4.00;1.63;;;;;;;;;;5030780;28;20530;-56
2021/05/04 06:29:40;;;;;;;4.20;1.30;;;;;;;;;;5029137;28;20052;-54
2021/05/04 06:32:13;;;;;;;3.67;1.10;;;;;;;;;;5033207;28;20044;-54
2021/05/04 06:34:39;;;;;;;;;;;;;;;;;;5030329;28;20390;-56
2021/05/04 06:37:04;;;;;;;6.57;1.38;;;;;;;;;;5031111;28;19960;-55
2021/05/04 06:39:30;;;;;;;3.17;1.27;;;;;;;;;;5029685;28;20569;-55
2021/05/04 06:41:56;;;;;;;3.33;1.40;;;;;;;;;;5033945;28;20053;-57
2021/05/04 06:44:22;;;;;;;3.78;1.20;;;;;;;;;;5035861;28;20095;-52
2021/05/04 06:46:48;;;;;;;2.90;1.20;;;;;;;;;;5040567;28;20091;-53
2021/05/04 06:49:14;;;;;;;2.97;1.27;;;;;;;;;;5039166;28;20037;-54
2021/05/04 06:51:40;;;;;;;3.25;1.20;;;;;;;;;;5035872;28;20077;-55
2021/05/04 06:54:06;;;;;;;4.07;1.50;;;;;;;;;;5035437;28;20175;-55
2021/05/04 06:56:31;;;;;;;3.97;1.30;;;;;;;;;;5032465;28;20055;-56
2021/05/04 06:58:57;;;;;;;5.32;1.80;;;;;;;;;;5033045;28;20139;-55
2021/05/04 07:01:23;;;;;;;5.70;1.10;;;;;;;;;;5029759;28;20095;-56
2021/05/04 07:03:49;;;;;;;4.15;1.13;;;;;;;;;;5032885;28;20041;-55
2021/05/04 07:06:15;;;;;;;4.88;1.25;;;;;;;;;;5030591;28;20030;-54
2021/05/04 07:08:40;;;;;;;3.03;1.00;;;;;;;;;;5032218;28;20057;-55
2021/05/04 07:11:06;;;;;;;3.58;1.10;;;;;;;;;;5033301;28;20049;-55
2021/05/04 07:13:32;;;;;;;3.42;1.38;;;;;;;;;;5030293;28;20040;-54
2021/05/04 07:15:58;;;;;;;4.40;1.30;;;;;;;;;;5031281;28;20131;-55
2021/05/04 07:18:25;;;;;;;5.47;1.20;;;;;;;;;;5028721;28;20072;-52
2021/05/04 07:20:51;;;;;;;3.42;1.30;;;;;;;;;;5031839;28;20041;-55
2021/05/04 07:23:17;;;;;;;3.10;1.17;;;;;;;;;;5032106;28;20037;-53
2021/05/04 07:25:43;;;;;;;3.42;1.30;;;;;;;;;;5030338;28;20029;-54
2021/05/04 07:28:09;;;;;;;4.25;1.23;;;;;;;;;;5029965;28;20047;-53
2021/05/04 07:30:40;;;;;;;4.10;1.52;;;;;;;;;;5030218;28;20067;-56
2021/05/04 07:33:06;;;;;;;4.50;1.50;;;;;;;;;;5031844;28;20519;-53
2021/05/04 07:35:31;;;;;;;4.45;1.38;;;;;;;;;;5011688;28;20132;-55
2021/05/04 07:37:57;;;;;;;4.60;1.33;;;;;;;;;;5029663;28;20051;-52
2021/05/04 07:40:23;;;;;;;4.20;1.27;;;;;;;;;;5030219;28;20883;-52
2021/05/04 07:42:49;;;;;;;4.00;1.55;;;;;;;;;;5023299;28;20419;-54
2021/05/04 07:45:15;;;;;;;5.38;1.55;;;;;;;;;;5009360;28;20045;-55
2021/05/04 07:47:41;;;;;;;3.63;1.20;;;;;;;;;;5009029;28;20561;-53
2021/05/04 07:50:09;;;;;;;3.72;1.35;;;;;;;;;;5009188;28;20041;-52
2021/05/04 07:52:36;;;;;;;9.13;1.48;;;;;;;;;;5010288;28;20097;-56
2021/05/04 07:55:02;;;;;;;4.07;1.45;;;;;;;;;;5010191;28;20053;-55
2021/05/04 07:57:28;;;;;;;7.85;2.35;;;;;;;;;;5009549;28;20038;-56
2021/05/04 07:59:55;;;;;;;5.35;2.35;;;;;;;;;;4993706;28;20057;-55
2021/05/04 08:02:20;;;;;;;4.35;1.75;;;;;;;;;;5010491;28;20394;-56
2021/05/04 08:04:47;;;;;;;4.72;1.60;;;;;;;;;;5009999;28;20057;-57
2021/05/04 08:07:13;;;;;;;3.70;1.30;;;;;;;;;;5011425;28;20339;-56
2021/05/04 08:09:39;;;;;;;7.30;1.95;;;;;;;;;;5009691;28;20057;-57
2021/05/04 08:12:06;;;;;;;6.00;1.88;;;;;;;;;;5011799;28;20045;-57
2021/05/04 08:14:35;;;;;;;5.75;1.80;;;;;;;;;;5011734;28;20203;-55
2021/05/04 08:17:02;;;;;;;4.85;1.80;;;;;;;;;;5012096;28;20710;-55
2021/05/04 08:19:28;;;;;;;3.97;1.80;;;;;;;;;;5010021;28;20046;-51
2021/05/04 08:21:54;;;;;;;4.05;1.95;;;;;;;;;;5010444;28;20050;-55
2021/05/04 08:24:20;;;;;;;4.45;1.80;;;;;;;;;;5009167;28;20095;-56
2021/05/04 08:26:46;;;;;;;6.53;2.15;;;;;;;;;;5010936;28;20859;-56
2021/05/04 08:29:12;;;;;;;5.07;1.80;;;;;;;;;;5009441;28;20042;-53
2021/05/04 08:31:38;;;;;;;5.05;1.95;;;;;;;;;;5009818;28;20562;-56
2021/05/04 08:34:04;;;;;;;4.72;2.05;;;;;;;;;;5009963;28;20044;-55
2021/05/04 08:36:30;;;;;;;6.05;1.90;;;;;;;;;;5009771;28;20116;-55
2021/05/04 08:38:57;;;;;;;4.63;1.73;;;;;;;;;;5009892;28;20116;-54
2021/05/04 08:41:24;;;;;;;4.82;1.65;;;;;;;;;;5009794;28;20033;-55
2021/05/04 08:43:50;;;;;;;4.40;1.88;;;;;;;;;;5024028;28;20911;-52
2021/05/04 08:46:17;;;;;;;5.30;1.90;;;;;;;;;;5028677;28;20669;-54
2021/05/04 08:48:45;;;;;;;6.40;1.80;;;;;;;;;;5027792;28;20057;-55
2021/05/04 08:51:12;;;;;;;3.80;1.50;;;;;;;;;;5030076;28;20533;-53
2021/05/04 08:53:38;;;;;;;3.35;1.50;;;;;;;;;;5027905;28;20064;-56
2021/05/04 08:56:04;;;;;;;4.68;1.63;;;;;;;;;;5031006;28;20115;-52
2021/05/04 08:58:33;;;;;;;5.05;1.60;;;;;;;;;;5010979;28;20041;-53
2021/05/04 09:00:58;;;;;;;5.97;2.03;;;;;;;;;;5029504;28;20445;-55
2021/05/04 09:03:52;;;;;;;3.97;1.50;;;;;;;;;;5029751;28;20048;-55
2021/05/04 09:06:28;;;;;;;3.17;1.40;;;;;;;;;;5028100;28;20049;-53
2021/05/04 09:09:04;;;;;;;7.28;2.00;;;;;;;;;;5029090;28;20536;-55
2021/05/04 09:11:42;;;;;;;4.78;1.45;;;;;;;;;;5030405;28;20563;-52
2021/05/04 09:17:20;;;;;;;3.55;1.30;;;;;;;;;;5007458;28;20121;-56
2021/05/04 09:22:32;;;;;;;4.95;1.80;;;;;;;;;;5018926;28;20067;-56
2021/05/04 09:24:58;;;;;;;8.63;2.10;;;;;;;;;;5030348;28;20163;-56
2021/05/04 09:27:23;;;;;;;4.78;2.15;;;;;;;;;;5028938;28;20147;-55
2021/05/04 09:29:53;;;;;;;5.90;1.83;;;;;;;;;;5030055;28;20115;-55
2021/05/04 09:32:20;;;;;;;4.50;2.33;;;;;;;;;;5029645;28;20029;-55
2021/05/04 09:34:50;;;;;;;4.55;1.70;;;;;;;;;;5030368;28;20126;-54
2021/05/04 09:37:28;;;;;;;3.95;1.70;;;;;;;;;;5031053;28;20096;-56
2021/05/04 09:40:16;;;;;;;7.03;1.88;;;;;;;;;;5029383;28;20045;-55
2021/05/04 09:42:42;;;;;;;3.97;1.67;;;;;;;;;;5032258;28;20049;-53
2021/05/04 09:45:20;;;;;;;4.75;2.08;;;;;;;;;;5032777;28;20095;-56
2021/05/04 09:47:45;;;;;;;4.85;1.70;;;;;;;;;;5031050;28;20037;-56
2021/05/04 09:50:11;;;;;;;6.80;1.80;;;;;;;;;;5032352;28;20416;-56
2021/05/04 09:52:41;;;;;;;4.85;1.70;;;;;;;;;;5031993;28;20048;-53
2021/05/04 09:55:15;;;;;;;4.25;1.60;;;;;;;;;;5032721;28;20049;-54
2021/05/04 09:57:40;;;;;;;;;;;;;;;;;;5030716;28;20037;-57
2021/05/04 10:00:12;;;;;;;5.78;1.70;;;;;;;;;;5032921;28;19917;-56
2021/05/04 10:02:39;;;;;;;4.30;1.70;;;;;;;;;;5032702;28;20542;-53
2021/05/04 10:05:05;;;;;;;4.38;1.70;;;;;;;;;;5032244;28;20137;-55
2021/05/04 10:07:32;;;;;;;4.05;1.90;;;;;;;;;;5030933;28;20052;-55
2021/05/04 10:09:59;;;;;;;4.38;2.08;;;;;;;;;;5032402;28;20037;-55
2021/05/04 10:12:25;;;;;;;4.97;2.10;;;;;;;;;;5029772;28;20033;-54
2021/05/04 10:14:51;;;;;;;6.07;2.00;;;;;;;;;;5032125;28;20057;-55
2021/05/04 10:17:18;;;;;;;4.32;2.28;;;;;;;;;;5032339;28;20537;-52
2021/05/04 10:19:46;;;;;;;4.72;2.05;;;;;;;;;;5030766;28;20329;-53
2021/05/04 10:22:12;;;;;;;7.30;2.05;;;;;;;;;;5031655;28;20905;-55
2021/05/04 10:24:39;;;;;;;5.68;1.90;;;;;;;;;;5030540;28;20143;-55
2021/05/04 10:27:06;;;;;;;4.32;2.08;;;;;;;;;;5031458;28;20185;-54
2021/05/04 10:29:32;;;;;;;7.70;2.30;;;;;;;;;;5031664;28;20037;-56
2021/05/04 10:31:59;;;;;;;4.75;1.90;;;;;;;;;;5032102;28;20049;-55
2021/05/04 10:34:33;;;;;;;3.80;1.70;;;;;;;;;;5010548;28;20053;-56
2021/05/04 10:37:00;;;;;;;6.15;2.05;;;;;;;;;;5031625;28;20418;-56
2021/05/04 10:39:34;;;;;;;4.35;1.77;;;;;;;;;;5030022;28;20333;-55
2021/05/04 10:42:01;;;;;;;4.75;1.90;;;;;;;;;;5030158;28;20044;-57
2021/05/04 10:44:28;;;;;;;13.30;6.47;;;;;;;;;;5031893;28;20123;-55
2021/05/04 10:46:56;;;;;;;4.97;1.73;;;;;;;;;;5030162;28;20044;-53
2021/05/04 10:49:40;;;;;;;6.53;1.90;;;;;;;;;;5030198;28;20043;-56
2021/05/04 10:52:06;;;;;;;6.10;1.80;;;;;;;;;;5031270;28;20075;-53
2021/05/04 10:54:52;;;;;;;7.07;1.95;;;;;;;;;;5029573;28;20487;-54
2021/05/04 10:57:18;;;;;;;4.32;1.50;;;;;;;;;;5029417;28;20541;-51
2021/05/04 10:59:45;;;;;;;6.30;1.95;;;;;;;;;;5029911;28;20053;-55
2021/05/04 11:02:17;;;;;;;4.75;1.60;;;;;;;;;;5030818;28;20100;-54
2021/05/04 11:04:43;;;;;;;4.38;1.70;;;;;;;;;;5029434;28;20037;-54
2021/05/04 11:07:09;;;;;;;3.83;1.90;;;;;;;;;;5029652;28;20029;-53
2021/05/04 11:09:39;;;;;;;5.10;1.80;;;;;;;;;;5029474;28;20458;-57
2021/05/04 11:12:09;;;;;;;4.32;1.92;;;;;;;;;;5030118;28;20041;-53
2021/05/04 11:14:39;;;;;;;4.55;1.90;;;;;;;;;;5030308;28;20053;-56
2021/05/04 11:17:06;;;;;;;5.65;1.83;;;;;;;;;;5030563;28;21120;-54
2021/05/04 11:19:41;;;;;;;4.75;1.92;;;;;;;;;;5030576;28;20041;-53
2021/05/04 11:34:53;;;;;;;4.53;1.85;;;;;;;;;;4927628;28;22038;-57
2021/05/04 11:37:19;;;;;;;4.57;1.90;;;;;;;;;;4932455;28;20047;-56
2021/05/04 11:39:54;;;;;;;4.28;1.92;;;;;;;;;;4934653;28;20429;-56
2021/05/04 11:42:26;;;;;;;6.97;2.03;;;;;;;;;;4931849;28;20137;-55
2021/05/04 11:44:53;;;;;;;5.57;1.92;;;;;;;;;;4931531;28;20062;-56
2021/05/04 11:47:24;;;;;;;5.70;2.17;;;;;;;;;;4933598;28;20035;-57
2021/05/04 11:49:50;;;;;;;4.75;1.88;;;;;;;;;;4930342;28;20036;-55
2021/05/04 11:52:18;;;;;;;6.20;2.35;;;;;;;;;;4933653;28;20162;-56
2021/05/04 11:54:45;;;;;;;7.07;2.20;;;;;;;;;;4936048;28;20035;-54
2021/05/04 11:57:11;;;;;;;4.45;2.13;;;;;;;;;;4926960;28;20079;-54
2021/05/04 11:59:37;;;;;;;5.28;2.10;;;;;;;;;;4927108;28;20033;-54
2021/05/04 12:02:03;;;;;;;4.40;2.00;;;;;;;;;;4928263;28;20097;-56
2021/05/04 12:04:51;;;;;;;5.32;1.98;;;;;;;;;;4928946;28;20043;-52
2021/05/04 12:07:35;;;;;;;5.30;1.70;;;;;;;;;;4926356;28;20063;-56
2021/05/04 12:10:02;;;;;;;4.00;1.70;;;;;;;;;;4935958;28;20728;-54
2021/05/04 12:13:00;;;;;;;6.97;1.75;;;;;;;;;;4929712;28;20062;-54
2021/05/04 12:15:44;;;;;;;4.25;1.92;;;;;;;;;;4936171;28;20375;-55
2021/05/04 12:18:11;;;;;;;7.88;1.75;;;;;;;;;;4937519;28;20039;-55
2021/05/04 12:20:57;;;;;;;6.18;1.70;;;;;;;;;;4930758;28;20047;-56
2021/05/04 12:23:27;;;;;;;6.38;1.70;;;;;;;;;;4934211;28;20052;-53
2021/05/04 12:25:58;;;;;;;7.78;3.05;;;;;;;;;;4933038;28;20047;-57
2021/05/04 12:28:26;;;;;;;4.07;1.40;;;;;;;;;;4933468;28;20130;-57
2021/05/04 12:30:59;;;;;;;2.97;1.20;;;;;;;;;;4941435;28;20620;-57
2021/05/04 12:33:25;;;;;;;4.82;1.50;;;;;;;;;;4941317;28;20047;-55
2021/05/04 12:36:06;;;;;;;3.10;1.20;;;;;;;;;;4939770;28;20042;-56
2021/05/04 12:38:38;;;;;;;3.58;1.17;;;;;;;;;;4939373;28;20042;-58
2021/05/04 12:41:11;;;;;;;4.15;1.40;;;;;;;;;;4934733;28;20054;-54
2021/05/04 12:43:47;;;;;;;3.95;1.30;;;;;;;;;;4936620;28;20221;-57
2021/05/04 12:46:13;;;;;;;7.55;1.50;;;;;;;;;;4933106;28;20042;-57
2021/05/04 12:48:40;;;;;;;7.40;1.80;;;;;;;;;;4935285;28;20046;-56
2021/05/04 12:51:11;;;;;;;3.53;1.30;;;;;;;;;;4936836;28;20501;-57
2021/05/04 12:53:39;;;;;;;4.00;1.52;;;;;;;;;;4935086;28;20097;-58
2021/05/04 12:56:27;;;;;;;4.80;1.30;;;;;;;;;;4936896;28;20047;-56
2021/05/04 12:58:53;;;;;;;3.17;1.10;;;;;;;;;;4937145;28;20101;-57
2021/05/04 13:01:19;;;;;;;5.85;1.23;;;;;;;;;;4935487;28;20039;-57
2021/05/04 13:03:54;;;;;;;3.75;1.30;;;;;;;;;;4935230;28;20244;-54
2021/05/04 13:06:26;;;;;;;5.75;1.48;;;;;;;;;;4934218;28;20073;-56
2021/05/04 13:08:54;;;;;;;3.45;1.23;;;;;;;;;;4937228;28;20397;-54
2021/05/04 13:11:46;;;;;;;5.28;1.23;;;;;;;;;;4936234;28;20039;-56
2021/05/04 13:14:35;;;;;;;5.80;1.30;;;;;;;;;;4935707;28;20065;-57
2021/05/04 13:31:31;;;;;;;4.25;1.20;;;;;;;;;;4959854;28;20041;-58
2021/05/04 13:33:56;;;;;;;5.68;1.27;;;;;;;;;;4964648;28;20057;-59
2021/05/04 13:36:22;;;;;;;6.38;1.40;;;;;;;;;;4959079;28;20050;-59
2021/05/04 13:39:20;;;;;;;2.80;1.20;;;;;;;;;;4953671;28;20042;-58
2021/05/04 13:49:47;;;;;;;3.28;1.20;;;;;;;;;;4952879;28;20093;-57
2021/05/04 13:52:12;;;;;;;6.07;1.60;;;;;;;;;;4955147;28;20472;-57
2021/05/04 13:54:38;;;;;;;3.85;0.90;;;;;;;;;;4954002;28;20038;-57
2021/05/04 13:57:04;;;;;;;3.10;1.00;;;;;;;;;;4956682;28;20061;-58
2021/05/04 13:59:30;;;;;;;7.75;1.27;;;;;;;;;;4928510;28;20049;-56
2021/05/04 14:02:03;;;;;;;2.53;0.80;;;;;;;;;;4958555;28;20038;-58
2021/05/04 14:28:39;;;;;;;4.18;1.60;;;;;;;;;;4954386;28;20042;-59
2021/05/04 14:31:05;;;;;;;4.00;1.10;;;;;;;;;;4955580;28;20911;-58
2021/05/04 14:33:33;;;;;;;5.70;1.30;;;;;;;;;;4953584;28;20047;-58
2021/05/04 14:36:15;;;;;;;3.47;1.33;;;;;;;;;;4950406;28;20050;-57
2021/05/04 14:38:51;;;;;;;4.75;1.00;;;;;;;;;;4953200;28;20039;-58
2021/05/04 14:41:42;;;;;;;3.58;1.30;;;;;;;;;;4945329;28;20054;-57
2021/05/04 15:02:44;;;;;;;6.72;1.67;;;;;;;;;;4929585;28;20472;-59
2021/05/04 15:05:10;;;;;;;4.75;1.40;;;;;;;;;;4928036;28;20043;-58
2021/05/04 15:07:36;;;;;;;5.35;1.63;;;;;;;;;;4929618;28;20050;-57
2021/05/04 15:10:02;;;;;;;9.60;1.55;;;;;;;;;;4934599;28;20065;-57
2021/05/04 15:12:29;;;;;;;4.50;1.80;;;;;;;;;;4934111;28;20069;-59
2021/05/04 15:14:56;;;;;;;6.03;1.35;;;;;;;;;;4941252;28;20038;-61
2021/05/04 15:17:41;;;;;;;4.50;1.60;;;;;;;;;;4938165;28;20186;-59
2021/05/04 15:22:53;;;;;;;3.75;1.52;;;;;;;;;;4928652;28;20097;-58
2021/05/04 15:25:19;;;;;;;4.28;1.38;;;;;;;;;;4936131;28;20117;-58
2021/05/04 15:27:45;;;;;;;3.83;1.40;;;;;;;;;;4935324;28;20039;-59
2021/05/04 15:30:11;;;;;;;4.20;1.70;;;;;;;;;;4934626;28;20040;-57
2021/05/04 15:32:48;;;;;;;3.38;1.20;;;;;;;;;;4935812;28;20569;-58
2021/05/04 15:35:14;;;;;;;7.05;1.48;;;;;;;;;;4933405;28;20861;-59
2021/05/04 15:37:40;;;;;;;4.82;1.60;;;;;;;;;;4934962;28;20114;-58
2021/05/04 15:40:06;;;;;;;4.65;1.60;;;;;;;;;;4934917;28;20225;-58
2021/05/04 15:42:32;;;;;;;4.97;1.65;;;;;;;;;;4937479;28;20113;-58
2021/05/04 15:45:00;;;;;;;6.05;1.55;;;;;;;;;;4936109;28;20621;-58
2021/05/04 15:47:51;;;;;;;8.93;1.60;;;;;;;;;;4933002;28;20043;-59
2021/05/04 15:52:52;;;;;;;3.47;1.55;;;;;;;;;;4933669;28;20453;-57
2021/05/04 16:10:45;;;;;;;5.78;1.33;;;;;;;;;;4935121;28;20515;-58
2021/05/04 16:13:11;;;;;;;3.53;1.30;;;;;;;;;;4911851;28;20047;-57
2021/05/04 16:15:37;;;;;;;2.53;1.00;;;;;;;;;;4937521;28;20065;-57
2021/05/04 16:18:03;;;;;;;6.47;1.27;;;;;;;;;;4929177;28;20070;-57
2021/05/04 16:23:22;;;;;;;6.72;1.17;;;;;;;;;;4935673;28;20066;-57
2021/05/04 16:31:36;;;;;;;2.97;1.00;;;;;;;;;;4900968;29;20459;-57
2021/05/04 16:34:02;;;;;;;7.60;1.50;;;;;;;;;;4901646;29;20064;-58
2021/05/04 16:36:28;;;;;;;4.22;1.02;;;;;;;;;;4926632;28;20043;-58
2021/05/04 16:38:59;;;;;;;3.25;1.10;;;;;;;;;;4959746;28;20039;-57
2021/05/04 16:41:25;;;;;;;2.88;1.00;;;;;;;;;;4957303;28;20047;-57